LPMA/FNC METAR and TAF weather

Enter ICAO airport designator
Station Type Date Time Source
LPMA METAR 2020/02/21 01:30 UTC NOAA

LPMA 210130Z VRB03KT 9999 SCT015 12/10 Q1021


Station Type Date Time Source
LPMA Decoded METAR 2020/02/21 01:30 UTC NOAA

Aeroporto Da Madeira, Portugal (LPMA) 32-41-52N 016-46-28W
Feb 20, 2020 - 08:30 PM EST / 2020.02.21 0130 UTC
Wind: Variable at 3 MPH (3 KT):0
Visibility: greater than 7 mile(s):0
Sky conditions: partly cloudy
Temperature: 53 F (12 C)
Dew Point: 50 F (10 C)
Relative Humidity: 87%
Pressure (altimeter): 30.15 in. Hg (1021 hPa)
ob: LPMA 210130Z VRB03KT 9999 SCT015 12/10 Q1021
cycle: 1

Station Type Date Time Source
LPMA TAF 2020/02/20 18:18 UTC NOAA

TAF LPMA 201700Z 2018/2118 36012KT 9999 SCT016
TEMPO 2018/2118 5000 SHRA SCT008 BKN013 FEW020CB PROB30
TEMPO 2103/2118 36018G30KT 3000 TSRA BKN010 SCT016CB

Example: see airport list